CheckWX is a tool to help pilots better visualize weather data.  It is not intended as a substitute for an official pre-flight weather briefing.

22:55:10 UTC

RKSO TAF
Osan Air Base
South Korea
TAF RKSO 131700Z 1317/1423 03012KT 6000 -RA BR BKN020 OVC030 QNH2952INS TEMPO 1317/1318 4800 -TSRA BKN030CB BECMG 1320/1321 06010KT 6000 -SHRA BR BKN012 OVC030 QNH2957INS BECMG 1406/1407 03009KT 9000 BR FEW010 SCT025 BKN040 QNH2961INS TX21/1409Z TN17/1322Z

Jul-13@
17:00 UTC

Jul-13 @ 17:00 UTC

Jul-13@
20:00 UTC

Jul-13 @ 20:00 UTC

TAF RKSO 131700Z 1317/1423 03012KT 6000 -RA BR BKN020 OVC030 QNH2952INS

Expired

Wind
  • 030° at 12 KTS
Conditions
Light Rain, Mist
Cloud Levels
  • Broken at 2,000' AGL
  • Overcast at 3,000' AGL

Jul-13@
17:00 UTC

Jul-13 @ 17:00 UTC

Jul-13@
18:00 UTC

Jul-13 @ 18:00 UTC

TEMPO 1317/1318 4800 -TSRA BKN030CB

Expired

Conditions
Light Thunderstorm, Rain
Cloud Levels
  • Broken at 3,000' AGL

Jul-13@
20:00 UTC

Jul-13 @ 20:00 UTC

Jul-14@
06:00 UTC

Jul-14 @ 06:00 UTC

BECMG 1320/1321 06010KT 6000 -SHRA BR BKN012 OVC030 QNH2957INS

Expired

Wind
  • 060° at 10 KTS
Conditions
Light Showers, Rain, Mist
Cloud Levels
  • Broken at 1,200' AGL
  • Overcast at 3,000' AGL

Jul-14@
06:00 UTC

Jul-14 @ 06:00 UTC

Jul-14@
23:00 UTC

Jul-14 @ 23:00 UTC

BECMG 1406/1407 03009KT 9000 BR FEW010 SCT025 BKN040 QNH2961INS TX21/1409Z TN17/1322Z

Becoming

Becoming Conditions expected by Tue, Jul 14, 2020 @ 07:00 UTC

Wind
  • 030° at 9 KTS
Conditions
Mist
Cloud Levels
  • Few at 1,000' AGL
  • Scattered at 2,500' AGL
  • Broken at 4,000' AGL